createdAt,value
2022-10-20T00:01:11.018Z,14.40
2022-10-20T00:03:39.044Z,14.40
2022-10-20T00:06:12.153Z,14.40
2022-10-20T00:08:40.940Z,14.40
2022-10-20T00:11:10.529Z,14.40
2022-10-20T00:13:38.821Z,14.30
2022-10-20T00:16:07.098Z,14.30
2022-10-20T00:18:35.112Z,14.40
2022-10-20T00:21:10.538Z,14.30
2022-10-20T00:23:37.930Z,14.30
2022-10-20T00:26:08.108Z,14.50
2022-10-20T00:28:35.780Z,14.30
2022-10-20T00:31:04.554Z,14.10
2022-10-20T00:33:32.621Z,14.60
2022-10-20T00:36:01.358Z,14.00
2022-10-20T00:38:28.840Z,14.40
2022-10-20T00:40:56.635Z,14.50
2022-10-20T00:45:57.301Z,14.40
2022-10-20T00:48:30.584Z,14.50
2022-10-20T00:50:58.036Z,14.40
2022-10-20T00:53:28.470Z,14.30
2022-10-20T00:55:57.834Z,14.20
2022-10-20T00:58:26.342Z,14.30
2022-10-20T01:00:57.790Z,15.00
2022-10-20T01:03:30.482Z,14.40
2022-10-20T01:05:57.862Z,14.50
2022-10-20T01:08:25.269Z,14.90
2022-10-20T01:11:16.557Z,14.70
2022-10-20T01:14:04.848Z,14.70
2022-10-20T01:17:01.343Z,15.00
2022-10-20T01:19:36.397Z,15.00
2022-10-20T01:22:28.708Z,14.70
2022-10-20T01:25:07.987Z,14.70
2022-10-20T01:27:43.134Z,15.00
2022-10-20T01:30:14.789Z,14.70
2022-10-20T01:33:11.178Z,14.50
2022-10-20T01:35:51.650Z,14.80
2022-10-20T01:38:28.024Z,14.50
2022-10-20T01:41:14.310Z,14.50
2022-10-20T01:43:45.009Z,14.80
2022-10-20T01:46:13.288Z,14.60
2022-10-20T01:51:09.878Z,14.90
2022-10-20T01:53:37.263Z,15.20
2022-10-20T01:56:05.545Z,15.50
2022-10-20T01:59:29.006Z,14.90
2022-10-20T02:02:07.682Z,14.60
2022-10-20T02:05:18.194Z,15.30
2022-10-20T02:07:45.474Z,14.90
2022-10-20T02:10:20.504Z,15.20
2022-10-20T02:12:52.622Z,14.90
2022-10-20T02:15:24.104Z,15.10
2022-10-20T02:17:58.477Z,14.90
2022-10-20T02:20:27.109Z,14.90
2022-10-20T02:22:55.931Z,15.70
2022-10-20T02:25:24.686Z,15.10
2022-10-20T02:27:54.686Z,15.00
2022-10-20T02:30:22.527Z,15.30
2022-10-20T02:32:52.871Z,15.30
2022-10-20T02:35:23.288Z,15.00
2022-10-20T02:37:51.019Z,15.10
2022-10-20T02:40:18.459Z,14.70
2022-10-20T02:42:45.681Z,15.20
2022-10-20T02:45:13.037Z,15.10
2022-10-20T02:47:40.376Z,15.00
2022-10-20T02:50:08.394Z,15.20
2022-10-20T02:55:05.240Z,14.80
2022-10-20T02:57:32.597Z,15.00
2022-10-20T03:02:27.512Z,14.70
2022-10-20T03:04:54.814Z,15.10
2022-10-20T03:07:22.066Z,15.00
2022-10-20T03:09:49.474Z,15.30
2022-10-20T03:12:16.814Z,15.00
2022-10-20T03:14:44.079Z,15.10
2022-10-20T03:17:11.324Z,15.00
2022-10-20T03:19:39.390Z,15.30
2022-10-20T03:22:07.054Z,15.50
2022-10-20T03:24:34.310Z,15.00
2022-10-20T03:27:01.544Z,15.00
2022-10-20T03:29:28.860Z,14.80
2022-10-20T03:31:56.160Z,15.30
2022-10-20T03:34:23.513Z,14.80
2022-10-20T03:36:50.825Z,15.10
2022-10-20T03:39:18.087Z,15.30
2022-10-20T03:41:45.385Z,15.10
2022-10-20T03:44:12.753Z,14.90
2022-10-20T03:46:40.006Z,15.20
2022-10-20T03:49:07.329Z,15.20
2022-10-20T03:51:34.581Z,14.80
2022-10-20T03:56:29.436Z,15.10
2022-10-20T03:58:56.731Z,15.10
2022-10-20T04:01:29.671Z,15.00
2022-10-20T04:03:57.096Z,15.20
2022-10-20T04:06:24.856Z,15.40
2022-10-20T04:08:52.150Z,15.20
2022-10-20T04:13:47.095Z,15.10
2022-10-20T04:16:14.395Z,15.10
2022-10-20T04:18:41.676Z,15.10
2022-10-20T04:21:08.988Z,15.30
2022-10-20T04:23:36.328Z,15.40
2022-10-20T04:26:11.931Z,15.00
2022-10-20T04:28:39.367Z,15.10
2022-10-20T04:31:06.981Z,15.00
2022-10-20T04:33:35.246Z,15.10
2022-10-20T04:36:06.064Z,15.50
2022-10-20T04:38:35.003Z,15.10
2022-10-20T04:41:07.279Z,15.30
2022-10-20T04:46:08.809Z,15.10
2022-10-20T04:48:37.421Z,15.50
2022-10-20T04:51:07.875Z,15.60
2022-10-20T04:53:35.748Z,15.20
2022-10-20T04:56:04.680Z,15.10
2022-10-20T04:58:32.484Z,15.20
2022-10-20T05:01:09.941Z,15.30
2022-10-20T05:03:37.374Z,15.30
2022-10-20T05:06:08.609Z,15.20
2022-10-20T05:08:35.921Z,15.30
2022-10-20T05:11:03.477Z,15.50
2022-10-20T05:13:30.889Z,14.90
2022-10-20T05:15:58.223Z,14.90
2022-10-20T05:18:25.528Z,15.50
2022-10-20T05:23:36.551Z,15.40
2022-10-20T05:26:08.053Z,14.80
2022-10-20T05:28:35.411Z,15.50
2022-10-20T05:31:04.156Z,15.60
2022-10-20T05:33:31.690Z,15.20
2022-10-20T05:35:59.192Z,14.90
2022-10-20T05:40:54.199Z,15.30
2022-10-20T05:43:21.519Z,15.10
2022-10-20T05:45:54.028Z,15.10
2022-10-20T05:48:21.245Z,15.10
2022-10-20T05:53:16.248Z,15.10
2022-10-20T05:58:11.155Z,15.00
2022-10-20T06:00:42.389Z,15.40
2022-10-20T06:03:09.741Z,14.70
2022-10-20T06:05:37.035Z,15.40
2022-10-20T06:08:04.566Z,14.90
2022-10-20T06:10:31.991Z,15.00
2022-10-20T06:12:59.304Z,15.00
2022-10-20T06:15:26.552Z,15.40
2022-10-20T06:17:53.860Z,15.00
2022-10-20T06:20:21.093Z,15.00
2022-10-20T06:25:15.927Z,14.80
2022-10-20T06:27:44.481Z,15.30
2022-10-20T06:30:11.904Z,15.40
2022-10-20T06:32:39.468Z,15.40
2022-10-20T06:35:07.122Z,14.80
2022-10-20T06:37:34.372Z,15.30
2022-10-20T06:42:29.815Z,14.80
2022-10-20T06:44:58.667Z,15.20
2022-10-20T06:47:25.951Z,15.20
2022-10-20T06:49:53.310Z,15.00
2022-10-20T06:52:20.658Z,15.20
2022-10-20T06:54:47.935Z,15.30
2022-10-20T06:57:15.178Z,15.10
2022-10-20T06:59:42.492Z,15.80
2022-10-20T07:02:12.170Z,15.20
2022-10-20T07:07:07.250Z,15.20
2022-10-20T07:09:34.531Z,15.20
2022-10-20T07:12:02.281Z,15.40
2022-10-20T07:14:32.353Z,15.20
2022-10-20T07:16:59.840Z,15.10
2022-10-20T07:19:27.284Z,15.80
2022-10-20T07:21:54.709Z,15.50
2022-10-20T07:24:22.189Z,15.20
2022-10-20T07:26:49.473Z,15.20
2022-10-20T07:29:16.833Z,15.20
2022-10-20T07:31:46.224Z,15.40
2022-10-20T07:34:31.507Z,15.20
2022-10-20T07:36:58.886Z,15.30
2022-10-20T07:39:27.140Z,15.30
2022-10-20T07:41:54.985Z,15.50
2022-10-20T07:44:23.097Z,15.60
2022-10-20T07:46:50.388Z,15.40
2022-10-20T07:52:05.429Z,15.40
2022-10-20T07:54:33.186Z,15.40
2022-10-20T07:57:00.598Z,15.40
2022-10-20T07:59:29.413Z,15.40
2022-10-20T08:01:59.560Z,15.40
2022-10-20T08:04:27.862Z,15.40
2022-10-20T08:06:55.150Z,15.40
2022-10-20T08:09:22.380Z,15.40
2022-10-20T08:11:52.860Z,15.40
2022-10-20T08:14:23.681Z,15.40
2022-10-20T08:16:51.020Z,15.60
2022-10-20T08:19:24.242Z,15.50
2022-10-20T08:21:52.180Z,15.60
2022-10-20T08:24:19.455Z,15.50
2022-10-20T08:26:46.812Z,15.60
2022-10-20T08:29:14.708Z,15.60
2022-10-20T08:31:44.415Z,15.60
2022-10-20T08:34:11.957Z,15.60
2022-10-20T08:36:39.274Z,15.60
2022-10-20T08:39:06.773Z,15.60
2022-10-20T08:41:55.755Z,15.70
2022-10-20T08:44:34.945Z,15.70
2022-10-20T08:47:06.020Z,15.80
2022-10-20T08:49:35.010Z,15.90
2022-10-20T08:52:03.087Z,16.20
2022-10-20T08:54:34.138Z,16.10
2022-10-20T08:57:01.537Z,16.10
2022-10-20T08:59:39.861Z,16.20
2022-10-20T09:02:17.151Z,16.30
2022-10-20T09:04:58.523Z,16.30
2022-10-20T09:07:32.870Z,16.30
2022-10-20T09:10:21.604Z,16.40
2022-10-20T09:12:49.535Z,16.40
2022-10-20T09:15:18.203Z,16.40
2022-10-20T09:18:04.110Z,16.50
2022-10-20T09:20:40.371Z,16.70
2022-10-20T09:23:39.527Z,16.40
2022-10-20T09:26:05.127Z,16.50
2022-10-20T09:28:38.535Z,16.40
2022-10-20T09:31:23.211Z,16.50
2022-10-20T09:33:50.601Z,16.70
2022-10-20T09:36:21.084Z,16.50
2022-10-20T09:38:51.582Z,16.60
2022-10-20T09:41:22.196Z,16.70
2022-10-20T09:43:57.237Z,16.50
2022-10-20T09:46:37.289Z,16.50
2022-10-20T09:49:06.960Z,16.50
2022-10-20T09:51:35.101Z,16.50
2022-10-20T09:54:08.172Z,16.60
2022-10-20T09:56:42.372Z,16.80
2022-10-20T09:59:34.916Z,16.60
2022-10-20T10:02:04.699Z,16.70
2022-10-20T10:04:38.781Z,16.70
2022-10-20T10:07:26.047Z,16.80
2022-10-20T10:09:56.142Z,16.80
2022-10-20T10:12:25.960Z,16.70
2022-10-20T10:14:58.562Z,17.00
2022-10-20T10:17:44.369Z,16.60
2022-10-20T10:20:11.837Z,16.80
2022-10-20T10:22:40.751Z,17.00
2022-10-20T10:25:24.746Z,16.40
2022-10-20T10:28:06.969Z,16.70
2022-10-20T10:30:37.388Z,16.40
2022-10-20T10:33:26.406Z,16.40
2022-10-20T10:35:53.817Z,16.30
2022-10-20T10:38:21.195Z,16.50
2022-10-20T10:41:00.478Z,16.60
2022-10-20T10:43:52.147Z,16.40
2022-10-20T10:46:30.568Z,16.70
2022-10-20T10:49:00.710Z,16.70
2022-10-20T10:51:33.721Z,16.60
2022-10-20T10:54:19.689Z,16.90
2022-10-20T10:56:51.399Z,17.20
2022-10-20T10:59:23.413Z,17.60
2022-10-20T11:02:09.181Z,17.80
2022-10-20T11:05:01.166Z,17.80
2022-10-20T11:07:38.163Z,18.40
2022-10-20T11:10:30.723Z,18.30
2022-10-20T11:13:12.734Z,18.40
2022-10-20T11:16:01.788Z,18.40
2022-10-20T11:18:50.829Z,18.30
2022-10-20T11:21:41.449Z,18.40
2022-10-20T11:24:35.356Z,18.30
2022-10-20T11:27:16.172Z,18.30
2022-10-20T11:29:49.078Z,18.20
2022-10-20T11:32:16.287Z,18.20
2022-10-20T11:34:57.986Z,18.20
2022-10-20T11:37:29.401Z,18.10
2022-10-20T11:40:14.772Z,18.30
2022-10-20T11:43:12.637Z,18.30
2022-10-20T11:45:39.863Z,18.50
2022-10-20T11:48:11.880Z,18.80
2022-10-20T11:50:42.536Z,18.60
2022-10-20T11:53:36.821Z,18.60
2022-10-20T11:56:30.411Z,18.70
2022-10-20T11:59:39.850Z,18.80
2022-10-20T12:02:45.141Z,18.70
2022-10-20T12:05:18.593Z,18.60
2022-10-20T12:08:28.066Z,18.50
2022-10-20T12:10:52.625Z,18.50
2022-10-20T12:13:27.281Z,18.40
2022-10-20T12:15:54.582Z,18.40
2022-10-20T12:18:33.027Z,18.60
2022-10-20T12:21:06.467Z,18.30
2022-10-20T12:23:46.168Z,18.50
2022-10-20T12:26:42.359Z,18.70
2022-10-20T12:29:30.761Z,18.60
2022-10-20T12:32:25.875Z,18.90
2022-10-20T12:35:02.864Z,19.10
2022-10-20T12:37:34.957Z,18.10
2022-10-20T12:40:33.778Z,18.40
2022-10-20T12:43:01.000Z,17.70
2022-10-20T12:45:40.924Z,17.60
2022-10-20T12:48:17.209Z,17.50
2022-10-20T12:50:46.961Z,17.70
2022-10-20T12:53:23.390Z,17.50
2022-10-20T12:56:04.871Z,17.50
2022-10-20T12:58:34.709Z,17.30
2022-10-20T13:01:07.432Z,17.80
2022-10-20T13:03:39.689Z,17.40
2022-10-20T13:06:26.954Z,17.40
2022-10-20T13:09:03.525Z,17.30
2022-10-20T13:11:40.617Z,17.30
2022-10-20T13:14:17.017Z,17.30
2022-10-20T13:17:03.142Z,17.10
2022-10-20T13:19:47.520Z,17.00
2022-10-20T13:22:47.696Z,17.00
2022-10-20T13:25:18.488Z,16.90
2022-10-20T13:27:49.032Z,16.80
2022-10-20T13:30:22.451Z,16.80
2022-10-20T13:33:33.933Z,16.70
2022-10-20T13:36:12.498Z,16.60
2022-10-20T13:38:42.679Z,16.80
2022-10-20T13:41:38.486Z,17.10
2022-10-20T13:44:32.054Z,17.20
2022-10-20T13:47:30.925Z,17.30
2022-10-20T13:50:06.228Z,17.90
2022-10-20T13:52:40.818Z,18.40
2022-10-20T13:55:16.054Z,18.90
2022-10-20T13:57:55.119Z,19.40
2022-10-20T14:00:29.105Z,19.60
2022-10-20T14:03:00.839Z,19.90
2022-10-20T14:05:31.484Z,20.00
2022-10-20T14:08:04.715Z,20.20
2022-10-20T14:10:48.209Z,20.10
2022-10-20T14:13:21.639Z,20.50
2022-10-20T14:15:52.148Z,20.70
2022-10-20T14:18:25.374Z,20.80
2022-10-20T14:21:04.840Z,20.80
2022-10-20T14:23:39.493Z,21.00
2022-10-20T14:26:11.624Z,21.40
2022-10-20T14:28:40.206Z,21.00
2022-10-20T14:31:10.198Z,20.90
2022-10-20T14:33:44.173Z,20.60
2022-10-20T14:36:29.370Z,20.10
2022-10-20T14:39:00.562Z,19.90
2022-10-20T14:41:31.662Z,20.30
2022-10-20T14:44:08.498Z,19.60
2022-10-20T14:46:45.086Z,19.30
2022-10-20T14:49:26.768Z,18.90
2022-10-20T14:52:21.322Z,18.50
2022-10-20T14:54:51.318Z,18.20
2022-10-20T14:57:19.137Z,18.30
2022-10-20T15:00:06.093Z,18.40
2022-10-20T15:05:22.109Z,18.20
2022-10-20T15:07:49.792Z,18.30
2022-10-20T15:10:20.467Z,18.70
2022-10-20T15:12:49.669Z,19.10
2022-10-20T15:15:18.824Z,19.90
2022-10-20T15:17:48.781Z,20.40
2022-10-20T15:20:34.488Z,20.90
2022-10-20T15:23:06.298Z,20.80
2022-10-20T15:25:47.340Z,21.10
2022-10-20T15:28:22.833Z,20.90
2022-10-20T15:30:50.305Z,20.30
2022-10-20T15:33:17.859Z,19.80
2022-10-20T15:35:47.325Z,19.30
2022-10-20T15:38:15.296Z,18.40
2022-10-20T15:40:43.114Z,18.50
2022-10-20T15:43:13.221Z,18.20
2022-10-20T15:45:54.360Z,18.00
2022-10-20T15:48:25.864Z,17.90
2022-10-20T15:50:56.528Z,17.50
2022-10-20T15:53:23.797Z,17.50
2022-10-20T15:55:51.041Z,17.40
2022-10-20T15:58:18.332Z,17.30
2022-10-20T16:00:45.745Z,17.80
2022-10-20T16:03:19.079Z,17.30
2022-10-20T16:05:47.295Z,17.30
2022-10-20T16:10:43.589Z,17.20
2022-10-20T16:13:12.040Z,17.10
2022-10-20T16:15:39.373Z,17.10
2022-10-20T16:18:09.592Z,17.00
2022-10-20T16:20:37.560Z,16.90
2022-10-20T16:23:05.106Z,17.30
2022-10-20T16:25:32.437Z,16.90
2022-10-20T16:27:59.977Z,17.10
2022-10-20T16:30:27.359Z,16.80
2022-10-20T16:32:54.625Z,16.70
2022-10-20T16:35:22.541Z,17.20
2022-10-20T16:37:49.820Z,16.80
2022-10-20T16:42:44.738Z,16.80
2022-10-20T16:45:12.080Z,17.10
2022-10-20T16:47:40.001Z,16.90
2022-10-20T16:50:07.789Z,16.70
2022-10-20T16:52:35.187Z,16.90
2022-10-20T16:55:02.606Z,16.30
2022-10-20T16:57:33.474Z,16.60
2022-10-20T17:00:00.778Z,16.40
2022-10-20T17:02:28.142Z,16.50
2022-10-20T17:04:55.403Z,16.20
2022-10-20T17:07:22.746Z,16.20
2022-10-20T17:09:50.022Z,16.80
2022-10-20T17:12:17.401Z,16.50
2022-10-20T17:14:44.808Z,16.00
2022-10-20T17:17:12.127Z,16.40
2022-10-20T17:19:41.305Z,16.20
2022-10-20T17:24:38.247Z,16.00
2022-10-20T17:27:05.775Z,16.10
2022-10-20T17:29:33.101Z,16.30
2022-10-20T17:32:00.494Z,15.90
2022-10-20T17:34:27.710Z,15.80
2022-10-20T17:36:54.987Z,15.90
2022-10-20T17:39:24.003Z,16.10
2022-10-20T17:41:51.306Z,15.50
2022-10-20T17:44:18.525Z,15.70
2022-10-20T17:46:45.805Z,15.20
2022-10-20T17:49:13.087Z,15.40
2022-10-20T17:51:40.448Z,15.50
2022-10-20T17:54:07.827Z,15.50
2022-10-20T17:56:37.018Z,15.10
2022-10-20T17:59:07.416Z,15.40
2022-10-20T18:01:38.376Z,15.50
2022-10-20T18:04:08.900Z,14.80
2022-10-20T18:06:36.830Z,15.10
2022-10-20T18:09:07.546Z,15.30
2022-10-20T18:11:35.790Z,15.20
2022-10-20T18:14:04.084Z,15.30
2022-10-20T18:16:33.341Z,14.90
2022-10-20T18:19:01.256Z,14.70
2022-10-20T18:21:30.112Z,14.70
2022-10-20T18:24:02.081Z,14.40
2022-10-20T18:26:30.463Z,14.60
2022-10-20T18:28:59.594Z,14.50
2022-10-20T18:31:30.305Z,14.70
2022-10-20T18:34:04.435Z,14.10
2022-10-20T18:36:36.922Z,14.00
2022-10-20T18:39:07.906Z,14.50
2022-10-20T18:41:38.279Z,14.00
2022-10-20T18:44:10.759Z,14.30
2022-10-20T18:46:39.217Z,14.80
2022-10-20T18:49:07.993Z,14.40
2022-10-20T18:51:36.352Z,14.70
2022-10-20T18:54:05.977Z,13.90
2022-10-20T18:56:34.027Z,13.90
2022-10-20T18:59:04.209Z,13.80
2022-10-20T19:01:35.029Z,14.30
2022-10-20T19:04:03.252Z,13.90
2022-10-20T19:06:32.902Z,13.70
2022-10-20T19:09:02.587Z,14.40
2022-10-20T19:11:32.618Z,14.60
2022-10-20T19:14:00.651Z,14.40
2022-10-20T19:16:31.039Z,13.90
2022-10-20T19:19:00.321Z,13.80
2022-10-20T19:21:28.980Z,13.80
2022-10-20T19:24:06.111Z,13.90
2022-10-20T19:26:39.773Z,13.90
2022-10-20T19:29:14.121Z,13.70
2022-10-20T19:31:47.264Z,13.60
2022-10-20T19:34:27.577Z,13.60
2022-10-20T19:36:55.926Z,13.80
2022-10-20T19:39:27.148Z,13.60
2022-10-20T19:41:56.182Z,13.50
2022-10-20T19:44:23.745Z,14.40
2022-10-20T19:46:52.061Z,13.10
2022-10-20T19:49:20.846Z,13.50
2022-10-20T19:51:48.467Z,13.60
2022-10-20T19:54:16.003Z,13.90
2022-10-20T19:56:43.685Z,13.60
2022-10-20T19:59:11.723Z,13.10
2022-10-20T20:01:39.110Z,13.10
2022-10-20T20:04:06.669Z,13.40
2022-10-20T20:06:34.918Z,13.10
2022-10-20T20:09:06.931Z,13.30
2022-10-20T20:11:36.501Z,13.40
2022-10-20T20:14:11.828Z,13.50
2022-10-20T20:16:41.429Z,13.50
2022-10-20T20:24:04.910Z,13.00
2022-10-20T20:26:34.228Z,13.30
2022-10-20T20:29:02.022Z,13.20
2022-10-20T20:31:30.383Z,13.00
2022-10-20T20:33:57.883Z,13.20
2022-10-20T20:36:27.143Z,13.20
2022-10-20T20:38:57.845Z,13.00
2022-10-20T20:41:27.775Z,13.20
2022-10-20T20:43:55.164Z,12.60
2022-10-20T20:46:24.201Z,12.80
2022-10-20T20:48:51.717Z,13.30
2022-10-20T20:51:19.180Z,13.40
2022-10-20T20:53:46.632Z,13.00
2022-10-20T20:56:20.544Z,13.00
2022-10-20T20:58:51.940Z,12.90
2022-10-20T21:01:27.895Z,12.60
2022-10-20T21:03:56.674Z,13.00
2022-10-20T21:06:33.123Z,12.70
2022-10-20T21:09:01.706Z,12.60
2022-10-20T21:11:29.275Z,12.80
2022-10-20T21:13:58.909Z,12.50
2022-10-20T21:16:31.931Z,12.50
2022-10-20T21:19:06.006Z,12.70
2022-10-20T21:21:35.308Z,12.60
2022-10-20T21:24:03.950Z,12.70
2022-10-20T21:26:32.444Z,12.60
2022-10-20T21:28:59.774Z,12.20
2022-10-20T21:31:28.354Z,12.70
2022-10-20T21:34:00.772Z,12.40
2022-10-20T21:36:29.703Z,12.50
2022-10-20T21:38:58.977Z,12.50
2022-10-20T21:41:32.050Z,12.00
2022-10-20T21:44:00.986Z,13.00
2022-10-20T21:46:50.759Z,12.20
2022-10-20T21:49:20.373Z,12.00
2022-10-20T21:51:50.692Z,12.30
2022-10-20T21:54:28.708Z,12.30
2022-10-20T21:56:56.873Z,12.30
2022-10-20T21:59:29.113Z,12.10
2022-10-20T22:01:58.673Z,12.00
2022-10-20T22:04:28.214Z,12.00
2022-10-20T22:06:56.142Z,11.90
2022-10-20T22:09:23.983Z,11.90
2022-10-20T22:11:55.224Z,12.60
2022-10-20T22:14:23.113Z,11.90
2022-10-20T22:16:51.059Z,11.90
2022-10-20T22:19:23.030Z,11.90
2022-10-20T22:21:51.631Z,11.90
2022-10-20T22:24:20.581Z,11.90
2022-10-20T22:26:49.157Z,11.90
2022-10-20T22:29:16.472Z,13.00
2022-10-20T22:31:43.878Z,12.10
2022-10-20T22:34:11.916Z,12.00
2022-10-20T22:36:39.669Z,11.90
2022-10-20T22:39:07.891Z,11.90
2022-10-20T22:41:35.754Z,11.70
2022-10-20T22:44:03.199Z,11.70
2022-10-20T22:46:30.544Z,11.70
2022-10-20T22:51:26.301Z,11.70
2022-10-20T22:53:53.796Z,11.60
2022-10-20T22:56:22.560Z,11.60
2022-10-20T22:58:52.946Z,11.60
2022-10-20T23:01:22.546Z,11.50
2022-10-20T23:03:50.594Z,11.60
2022-10-20T23:06:22.000Z,12.00
2022-10-20T23:08:52.007Z,11.50
2022-10-20T23:11:20.298Z,13.00
2022-10-20T23:13:48.329Z,11.60
2022-10-20T23:16:15.828Z,11.60
2022-10-20T23:18:43.594Z,11.60
2022-10-20T23:21:13.104Z,12.30
2022-10-20T23:23:40.756Z,11.50
2022-10-20T23:26:08.410Z,12.10
2022-10-20T23:28:37.096Z,11.80
2022-10-20T23:31:15.960Z,11.70
2022-10-20T23:33:44.914Z,11.70
2022-10-20T23:36:13.525Z,12.20
2022-10-20T23:38:41.672Z,11.70
2022-10-20T23:41:09.307Z,11.90
2022-10-20T23:46:09.401Z,11.50
2022-10-20T23:48:37.042Z,11.80
2022-10-20T23:51:05.882Z,11.90
2022-10-20T23:53:33.618Z,11.50
2022-10-20T23:56:01.046Z,11.90
2022-10-20T23:58:28.489Z,12.10
